createdAt,value
2018-07-19T00:01:08.404Z,5.17
2018-07-19T00:03:36.741Z,6.20
2018-07-19T00:06:05.553Z,5.87
2018-07-19T00:08:33.953Z,5.60
2018-07-19T00:11:02.276Z,5.70
2018-07-19T00:13:30.612Z,6.17
2018-07-19T00:15:58.948Z,5.80
2018-07-19T00:18:27.372Z,6.00
2018-07-19T00:20:57.156Z,5.63
2018-07-19T00:23:26.046Z,5.70
2018-07-19T00:25:55.038Z,6.40
2018-07-19T00:28:23.705Z,6.13
2018-07-19T00:30:52.096Z,6.20
2018-07-19T00:33:20.669Z,5.87
2018-07-19T00:35:49.134Z,6.03
2018-07-19T00:38:17.731Z,5.93
2018-07-19T00:40:46.071Z,6.00
2018-07-19T00:43:14.373Z,6.30
2018-07-19T00:45:42.703Z,6.67
2018-07-19T00:48:11.025Z,6.50
2018-07-19T00:50:39.390Z,6.10
2018-07-19T00:53:07.693Z,6.57
2018-07-19T00:55:36.000Z,6.47
2018-07-19T00:58:04.336Z,6.90
2018-07-19T01:00:32.716Z,6.80
2018-07-19T01:03:01.034Z,6.53
2018-07-19T01:05:29.351Z,6.67
2018-07-19T01:07:57.657Z,6.20
2018-07-19T01:10:25.980Z,6.27
2018-07-19T01:12:54.604Z,6.17
2018-07-19T01:15:22.948Z,6.00
2018-07-19T01:17:51.297Z,6.90
2018-07-19T01:20:19.656Z,6.33
2018-07-19T01:22:48.002Z,6.80
2018-07-19T01:25:16.624Z,6.27
2018-07-19T01:27:45.122Z,7.27
2018-07-19T01:30:13.464Z,6.87
2018-07-19T01:32:41.777Z,6.73
2018-07-19T01:35:10.195Z,6.60
2018-07-19T01:37:38.505Z,6.47
2018-07-19T01:40:06.915Z,6.97
2018-07-19T01:42:38.737Z,6.77
2018-07-19T01:45:07.886Z,6.53
2018-07-19T01:47:36.208Z,5.90
2018-07-19T01:50:05.765Z,6.20
2018-07-19T01:52:34.132Z,5.90
2018-07-19T01:55:02.489Z,6.47
2018-07-19T01:57:30.793Z,6.13
2018-07-19T01:59:59.137Z,7.40
2018-07-19T02:02:27.444Z,7.13
2018-07-19T02:04:55.792Z,7.60
2018-07-19T02:07:24.102Z,8.03
2018-07-19T02:09:52.425Z,7.27
2018-07-19T02:12:20.748Z,7.57
2018-07-19T02:14:49.077Z,7.47
2018-07-19T02:17:17.425Z,7.60
2018-07-19T02:19:45.793Z,8.20
2018-07-19T02:22:14.128Z,7.10
2018-07-19T02:24:42.461Z,7.63
2018-07-19T02:27:10.822Z,7.37
2018-07-19T02:29:39.141Z,7.27
2018-07-19T02:32:07.497Z,6.93
2018-07-19T02:34:35.816Z,7.73
2018-07-19T02:37:04.209Z,7.90
2018-07-19T02:39:32.533Z,8.50
2018-07-19T02:42:00.893Z,7.97
2018-07-19T02:44:29.224Z,8.30
2018-07-19T02:46:57.584Z,8.73
2018-07-19T02:49:25.896Z,8.33
2018-07-19T02:51:54.235Z,8.87
2018-07-19T02:54:22.578Z,8.40
2018-07-19T02:56:50.900Z,8.63
2018-07-19T02:59:19.279Z,8.73
2018-07-19T03:01:47.654Z,8.93
2018-07-19T03:04:15.999Z,8.20
2018-07-19T03:06:44.384Z,9.00
2018-07-19T03:09:12.697Z,8.57
2018-07-19T03:11:41.037Z,9.00
2018-07-19T03:14:09.356Z,8.80
2018-07-19T03:16:37.706Z,8.00
2018-07-19T03:19:06.012Z,8.77
2018-07-19T03:21:34.336Z,8.47
2018-07-19T03:24:02.675Z,7.67
2018-07-19T03:26:31.000Z,7.90
2018-07-19T03:28:59.321Z,7.23
2018-07-19T03:31:27.666Z,7.27
2018-07-19T03:33:55.979Z,6.97
2018-07-19T03:36:24.305Z,6.50
2018-07-19T03:38:52.638Z,6.93
2018-07-19T03:41:20.988Z,7.03
2018-07-19T03:43:49.287Z,8.07
2018-07-19T03:46:18.089Z,7.70
2018-07-19T03:48:46.464Z,8.10
2018-07-19T03:51:14.785Z,8.57
2018-07-19T03:53:43.155Z,8.60
2018-07-19T03:56:11.469Z,8.23
2018-07-19T03:58:39.820Z,8.37
2018-07-19T04:01:08.228Z,8.90
2018-07-19T04:03:36.573Z,8.70
2018-07-19T04:06:04.900Z,8.23
2018-07-19T04:08:33.227Z,9.00
2018-07-19T04:11:01.568Z,7.93
2018-07-19T04:13:29.876Z,8.43
2018-07-19T04:15:58.232Z,8.53
2018-07-19T04:18:26.539Z,8.40
2018-07-19T04:20:54.840Z,8.37
2018-07-19T04:23:23.162Z,8.77
2018-07-19T04:25:51.464Z,8.53
2018-07-19T04:28:19.982Z,8.63
2018-07-19T04:30:48.296Z,8.63
2018-07-19T04:33:16.653Z,9.23
2018-07-19T04:35:45.049Z,8.47
2018-07-19T04:38:13.408Z,9.20
2018-07-19T04:40:41.764Z,8.30
2018-07-19T04:43:10.096Z,8.30
2018-07-19T04:45:38.444Z,8.13
2018-07-19T04:48:06.811Z,8.47
2018-07-19T04:50:35.110Z,8.17
2018-07-19T04:53:03.191Z,7.97
2018-07-19T04:55:31.600Z,7.87
2018-07-19T04:57:59.944Z,7.80
2018-07-19T05:00:33.684Z,8.47
2018-07-19T05:03:02.053Z,7.90
2018-07-19T05:05:30.394Z,7.47
2018-07-19T05:07:58.708Z,7.70
2018-07-19T05:10:27.041Z,8.20
2018-07-19T05:12:55.407Z,8.30
2018-07-19T05:15:23.752Z,7.70
2018-07-19T05:17:52.116Z,7.67
2018-07-19T05:20:20.445Z,8.70
2018-07-19T05:22:48.783Z,8.03
2018-07-19T05:25:17.133Z,6.73
2018-07-19T05:27:45.467Z,7.50
2018-07-19T05:30:13.769Z,7.50
2018-07-19T05:32:42.108Z,7.27
2018-07-19T05:35:10.416Z,6.80
2018-07-19T05:37:38.756Z,6.27
2018-07-19T05:40:07.075Z,6.13
2018-07-19T05:42:35.409Z,6.20
2018-07-19T05:45:03.798Z,6.77
2018-07-19T05:47:32.150Z,6.10
2018-07-19T05:50:00.460Z,6.73
2018-07-19T05:52:28.801Z,7.00
2018-07-19T05:54:57.093Z,6.23
2018-07-19T05:57:25.408Z,6.47
2018-07-19T05:59:53.740Z,6.17
2018-07-19T06:02:22.075Z,6.30
2018-07-19T06:04:50.097Z,6.13
2018-07-19T06:07:18.440Z,5.83
2018-07-19T06:09:46.797Z,5.97
2018-07-19T06:12:15.120Z,5.47
2018-07-19T06:14:43.445Z,5.13
2018-07-19T06:17:11.808Z,5.57
2018-07-19T06:19:40.119Z,5.30
2018-07-19T06:22:08.453Z,5.73
2018-07-19T06:24:36.801Z,5.33
2018-07-19T06:27:05.285Z,5.27
2018-07-19T06:29:33.635Z,5.57
2018-07-19T06:32:02.006Z,4.47
2018-07-19T06:34:30.657Z,4.87
2018-07-19T06:36:58.970Z,5.20
2018-07-19T06:39:27.016Z,5.03
2018-07-19T06:41:55.420Z,5.37
2018-07-19T06:44:23.820Z,4.33
2018-07-19T06:46:52.130Z,4.03
2018-07-19T06:49:20.493Z,4.13
2018-07-19T06:51:48.785Z,4.47
2018-07-19T06:54:17.101Z,4.23
2018-07-19T06:56:45.488Z,4.33
2018-07-19T06:59:13.844Z,3.70
2018-07-19T07:01:42.160Z,3.93
2018-07-19T07:04:10.494Z,3.97
2018-07-19T07:06:38.788Z,3.37
2018-07-19T07:09:09.073Z,3.73
2018-07-19T07:11:37.363Z,3.60
2018-07-19T07:14:05.939Z,3.70
2018-07-19T07:16:34.257Z,3.30
2018-07-19T07:19:02.576Z,3.20
2018-07-19T07:21:30.899Z,3.17
2018-07-19T07:23:59.235Z,3.20
2018-07-19T07:26:27.568Z,2.90
2018-07-19T07:28:55.929Z,3.10
2018-07-19T07:31:24.256Z,3.20
2018-07-19T07:33:53.632Z,3.00
2018-07-19T07:36:23.255Z,2.97
2018-07-19T07:38:51.674Z,2.50
2018-07-19T07:41:19.989Z,3.27
2018-07-19T07:43:48.309Z,3.17
2018-07-19T07:46:16.765Z,2.70
2018-07-19T07:48:45.120Z,2.60
2018-07-19T07:51:13.444Z,3.10
2018-07-19T07:53:41.777Z,2.40
2018-07-19T07:56:10.092Z,2.77
2018-07-19T07:58:38.417Z,2.50
2018-07-19T08:01:06.765Z,2.90
2018-07-19T08:03:35.112Z,2.40
2018-07-19T08:06:03.464Z,2.30
2018-07-19T08:08:31.784Z,2.30
2018-07-19T08:11:00.122Z,2.30
2018-07-19T08:13:28.448Z,2.53
2018-07-19T08:15:56.821Z,2.80
2018-07-19T08:18:25.107Z,3.00
2018-07-19T08:20:53.463Z,2.90
2018-07-19T08:23:21.768Z,2.87
2018-07-19T08:25:50.119Z,2.90
2018-07-19T08:28:18.442Z,2.97
2018-07-19T08:30:46.511Z,2.70
2018-07-19T08:33:14.848Z,2.43
2018-07-19T08:35:43.174Z,2.70
2018-07-19T08:38:11.584Z,2.60
2018-07-19T08:40:40.021Z,2.63
2018-07-19T08:43:08.332Z,2.63
2018-07-19T08:45:36.704Z,2.60
2018-07-19T08:48:05.236Z,2.70
2018-07-19T08:50:33.589Z,2.43
2018-07-19T08:53:01.905Z,2.80
2018-07-19T08:55:30.228Z,2.27
2018-07-19T08:57:58.540Z,2.43
2018-07-19T09:00:26.884Z,2.77
2018-07-19T09:02:55.185Z,2.97
2018-07-19T09:05:23.537Z,2.40
2018-07-19T09:07:51.935Z,2.33
2018-07-19T09:10:20.268Z,2.50
2018-07-19T09:12:48.597Z,2.80
2018-07-19T09:15:16.968Z,2.57
2018-07-19T09:17:45.274Z,2.77
2018-07-19T09:20:13.608Z,2.50
2018-07-19T09:22:41.961Z,2.43
2018-07-19T09:25:10.251Z,2.30
2018-07-19T09:27:38.583Z,2.80
2018-07-19T09:30:07.224Z,2.47
2018-07-19T09:32:35.564Z,2.13
2018-07-19T09:35:03.888Z,2.40
2018-07-19T09:37:32.188Z,2.57
2018-07-19T09:40:00.530Z,2.30
2018-07-19T09:42:28.845Z,2.90
2018-07-19T09:44:57.177Z,2.50
2018-07-19T09:47:25.508Z,2.50
2018-07-19T09:49:53.836Z,2.43
2018-07-19T09:52:22.140Z,3.00
2018-07-19T09:54:54.625Z,2.50
2018-07-19T09:57:22.937Z,2.30
2018-07-19T09:59:51.277Z,2.50
2018-07-19T10:02:19.697Z,2.50
2018-07-19T10:04:48.008Z,2.60
2018-07-19T10:07:16.329Z,2.30
2018-07-19T10:09:44.666Z,2.40
2018-07-19T10:12:13.079Z,2.50
2018-07-19T10:14:41.441Z,2.20
2018-07-19T10:17:09.804Z,2.60
2018-07-19T10:19:38.145Z,2.60
2018-07-19T10:22:06.485Z,2.40
2018-07-19T10:24:34.807Z,2.40
2018-07-19T10:27:03.132Z,2.10
2018-07-19T10:29:31.456Z,1.97
2018-07-19T10:31:59.872Z,2.27
2018-07-19T10:34:28.175Z,2.00
2018-07-19T10:36:56.466Z,2.40
2018-07-19T10:39:24.853Z,2.10
2018-07-19T10:41:53.205Z,2.47
2018-07-19T10:44:21.576Z,2.73
2018-07-19T10:46:49.879Z,2.30
2018-07-19T10:49:18.185Z,2.50
2018-07-19T10:51:46.576Z,2.40
2018-07-19T10:54:14.805Z,2.43
2018-07-19T10:56:43.121Z,1.97
2018-07-19T10:59:11.404Z,2.50
2018-07-19T11:01:39.757Z,2.10
2018-07-19T11:04:08.073Z,2.72
2018-07-19T11:06:36.417Z,2.30
2018-07-19T11:09:07.305Z,2.17
2018-07-19T11:11:35.631Z,1.82
2018-07-19T11:14:03.936Z,2.30
2018-07-19T11:16:32.292Z,2.00
2018-07-19T11:19:00.559Z,2.00
2018-07-19T11:21:28.892Z,2.00
2018-07-19T11:23:57.196Z,2.00
2018-07-19T11:26:25.249Z,1.92
2018-07-19T11:28:53.544Z,2.00
2018-07-19T11:31:21.861Z,1.82
2018-07-19T11:33:50.149Z,1.90
2018-07-19T11:36:18.473Z,1.87
2018-07-19T11:38:46.793Z,2.30
2018-07-19T11:41:15.149Z,2.20
2018-07-19T11:43:43.468Z,2.10
2018-07-19T11:46:11.777Z,2.30
2018-07-19T11:48:40.068Z,2.33
2018-07-19T11:51:08.374Z,2.03
2018-07-19T11:53:36.688Z,2.17
2018-07-19T11:56:05.042Z,2.30
2018-07-19T11:58:33.336Z,2.13
2018-07-19T12:01:01.640Z,2.33
2018-07-19T12:03:29.962Z,2.20
2018-07-19T12:05:58.300Z,2.67
2018-07-19T12:08:26.608Z,2.37
2018-07-19T12:10:54.897Z,2.00
2018-07-19T12:13:23.216Z,2.40
2018-07-19T12:15:51.545Z,2.33
2018-07-19T12:18:19.873Z,2.50
2018-07-19T12:20:48.216Z,2.73
2018-07-19T12:23:16.551Z,2.20
2018-07-19T12:25:44.899Z,2.57
2018-07-19T12:28:13.214Z,2.53
2018-07-19T12:30:41.537Z,2.40
2018-07-19T12:33:09.874Z,2.50
2018-07-19T12:35:38.164Z,2.77
2018-07-19T12:38:06.464Z,2.27
2018-07-19T12:40:34.777Z,2.22
2018-07-19T12:43:03.081Z,2.55
2018-07-19T12:45:31.370Z,2.00
2018-07-19T12:47:59.730Z,2.58
2018-07-19T12:50:28.021Z,2.22
2018-07-19T12:52:56.325Z,2.55
2018-07-19T12:55:24.641Z,2.37
2018-07-19T12:57:52.972Z,2.35
2018-07-19T13:00:21.318Z,2.30
2018-07-19T13:02:49.596Z,2.30
2018-07-19T13:05:17.907Z,2.52
2018-07-19T13:07:46.217Z,2.50
2018-07-19T13:10:14.496Z,2.35
2018-07-19T13:12:42.841Z,2.10
2018-07-19T13:15:11.178Z,2.55
2018-07-19T13:17:39.696Z,2.50
2018-07-19T13:20:08.016Z,2.40
2018-07-19T13:22:37.564Z,2.53
2018-07-19T13:25:05.945Z,2.90
2018-07-19T13:27:34.311Z,2.50
2018-07-19T13:30:02.968Z,2.77
2018-07-19T13:32:31.288Z,2.50
2018-07-19T13:35:00.608Z,2.63
2018-07-19T13:37:29.010Z,2.80
2018-07-19T13:39:57.324Z,2.60
2018-07-19T13:42:25.637Z,2.30
2018-07-19T13:44:53.977Z,2.33
2018-07-19T13:47:22.273Z,2.33
2018-07-19T13:49:50.601Z,2.60
2018-07-19T13:52:26.153Z,2.63
2018-07-19T13:54:54.465Z,3.07
2018-07-19T13:57:22.745Z,2.60
2018-07-19T13:59:51.049Z,2.70
2018-07-19T14:02:19.364Z,2.77
2018-07-19T14:04:47.735Z,2.80
2018-07-19T14:07:16.005Z,2.57
2018-07-19T14:09:44.316Z,2.73
2018-07-19T14:12:12.607Z,2.30
2018-07-19T14:14:40.909Z,2.70
2018-07-19T14:17:09.692Z,2.97
2018-07-19T14:19:38.010Z,2.43
2018-07-19T14:22:06.285Z,2.33
2018-07-19T14:24:34.594Z,2.43
2018-07-19T14:27:02.907Z,2.60
2018-07-19T14:29:31.241Z,2.93
2018-07-19T14:31:59.550Z,2.80
2018-07-19T14:34:27.901Z,2.43
2018-07-19T14:36:56.196Z,2.83
2018-07-19T14:39:24.517Z,2.70
2018-07-19T14:41:52.805Z,2.63
2018-07-19T14:44:21.472Z,2.90
2018-07-19T14:46:49.761Z,2.53
2018-07-19T14:49:18.070Z,3.00
2018-07-19T14:51:46.364Z,2.57
2018-07-19T14:54:14.732Z,2.77
2018-07-19T14:56:43.094Z,2.87
2018-07-19T14:59:11.425Z,2.60
2018-07-19T15:01:39.760Z,2.87
2018-07-19T15:04:08.089Z,2.90
2018-07-19T15:06:36.455Z,2.60
2018-07-19T15:09:08.243Z,2.77
2018-07-19T15:11:36.603Z,3.00
2018-07-19T15:14:05.132Z,3.03
2018-07-19T15:16:33.746Z,3.10
2018-07-19T15:19:02.071Z,2.90
2018-07-19T15:21:30.388Z,2.90
2018-07-19T15:23:58.704Z,2.90
2018-07-19T15:26:27.020Z,2.70
2018-07-19T15:28:55.380Z,3.10
2018-07-19T15:31:23.632Z,2.93
2018-07-19T15:33:51.977Z,3.13
2018-07-19T15:36:20.292Z,2.83
2018-07-19T15:38:48.608Z,2.87
2018-07-19T15:41:16.905Z,2.47
2018-07-19T15:43:45.197Z,2.97
2018-07-19T15:46:13.520Z,3.00
2018-07-19T15:48:41.821Z,3.13
2018-07-19T15:51:10.214Z,3.30
2018-07-19T15:53:38.732Z,2.93
2018-07-19T15:56:07.056Z,2.80
2018-07-19T15:58:35.353Z,2.73
2018-07-19T16:01:03.746Z,2.93
2018-07-19T16:03:32.056Z,2.80
2018-07-19T16:06:00.385Z,2.57
2018-07-19T16:08:28.656Z,2.77
2018-07-19T16:10:56.953Z,2.70
2018-07-19T16:13:25.270Z,2.57
2018-07-19T16:15:53.593Z,2.70
2018-07-19T16:18:21.888Z,2.83
2018-07-19T16:20:50.199Z,3.03
2018-07-19T16:23:18.485Z,2.83
2018-07-19T16:25:46.847Z,2.83
2018-07-19T16:28:15.138Z,2.90
2018-07-19T16:30:43.444Z,3.07
2018-07-19T16:33:11.729Z,3.07
2018-07-19T16:35:40.058Z,2.70
2018-07-19T16:38:08.362Z,2.90
2018-07-19T16:40:36.672Z,2.80
2018-07-19T16:43:04.988Z,2.83
2018-07-19T16:45:33.295Z,3.00
2018-07-19T16:48:01.591Z,3.20
2018-07-19T16:50:29.922Z,2.60
2018-07-19T16:52:58.208Z,2.97
2018-07-19T16:55:26.537Z,2.47
2018-07-19T16:57:54.861Z,2.77
2018-07-19T17:00:23.196Z,2.90
2018-07-19T17:02:51.517Z,2.80
2018-07-19T17:05:19.872Z,2.80
2018-07-19T17:07:48.168Z,2.87
2018-07-19T17:10:16.500Z,2.83
2018-07-19T17:12:44.822Z,2.50
2018-07-19T17:15:13.177Z,2.60
2018-07-19T17:17:41.465Z,2.20
2018-07-19T17:20:09.793Z,2.50
2018-07-19T17:22:38.089Z,2.50
2018-07-19T17:25:06.409Z,3.10
2018-07-19T17:27:34.705Z,3.23
2018-07-19T17:30:03.047Z,3.30
2018-07-19T17:32:31.340Z,3.70
2018-07-19T17:35:02.654Z,3.33
2018-07-19T17:37:30.960Z,3.67
2018-07-19T17:39:59.295Z,4.30
2018-07-19T17:42:27.616Z,3.03
2018-07-19T17:44:55.902Z,3.00
2018-07-19T17:47:24.232Z,2.87
2018-07-19T17:49:52.533Z,2.37
2018-07-19T17:52:20.980Z,2.67
2018-07-19T17:54:49.281Z,3.57
2018-07-19T17:57:17.604Z,3.47
2018-07-19T17:59:46.003Z,2.90
2018-07-19T18:02:14.368Z,3.20
2018-07-19T18:04:42.673Z,2.83
2018-07-19T18:07:11.080Z,3.10
2018-07-19T18:09:39.368Z,3.00
2018-07-19T18:12:07.877Z,3.20
2018-07-19T18:14:36.208Z,2.77
2018-07-19T18:17:04.543Z,3.47
2018-07-19T18:19:32.872Z,3.40
2018-07-19T18:22:01.209Z,3.43
2018-07-19T18:24:29.506Z,3.40
2018-07-19T18:26:57.844Z,3.50
2018-07-19T18:29:26.156Z,3.40
2018-07-19T18:31:54.456Z,3.60
2018-07-19T18:34:22.774Z,3.80
2018-07-19T18:36:51.092Z,3.30
2018-07-19T18:39:19.405Z,3.37
2018-07-19T18:41:47.725Z,4.10
2018-07-19T18:44:16.035Z,3.60
2018-07-19T18:46:44.371Z,3.70
2018-07-19T18:49:12.665Z,4.20
2018-07-19T18:51:40.997Z,4.40
2018-07-19T18:54:09.313Z,4.60
2018-07-19T18:56:37.638Z,4.93
2018-07-19T18:59:06.090Z,4.90
2018-07-19T19:01:34.444Z,5.00
2018-07-19T19:04:02.468Z,4.40
2018-07-19T19:06:30.819Z,4.07
2018-07-19T19:08:59.147Z,4.10
2018-07-19T19:11:27.584Z,4.40
2018-07-19T19:13:55.889Z,4.50
2018-07-19T19:16:24.204Z,4.60
2018-07-19T19:18:52.516Z,4.37
2018-07-19T19:21:20.872Z,4.30
2018-07-19T19:23:49.226Z,5.17
2018-07-19T19:26:17.625Z,4.23
2018-07-19T19:28:45.924Z,4.77
2018-07-19T19:31:14.247Z,4.93
2018-07-19T19:33:42.556Z,4.70
2018-07-19T19:36:10.889Z,4.57
2018-07-19T19:38:39.204Z,4.40
2018-07-19T19:41:07.518Z,5.00
2018-07-19T19:43:35.833Z,5.40
2018-07-19T19:46:04.174Z,5.60
2018-07-19T19:48:36.097Z,5.03
2018-07-19T19:51:05.757Z,5.77
2018-07-19T19:53:34.098Z,5.17
2018-07-19T19:56:02.720Z,5.73
2018-07-19T19:58:31.128Z,5.60
2018-07-19T20:00:59.804Z,5.07
2018-07-19T20:03:28.404Z,5.37
2018-07-19T20:05:56.857Z,5.33
2018-07-19T20:08:25.178Z,5.37
2018-07-19T20:10:53.493Z,5.70
2018-07-19T20:13:21.837Z,5.97
2018-07-19T20:15:50.672Z,5.77
2018-07-19T20:18:19.021Z,5.47
2018-07-19T20:20:47.336Z,5.80
2018-07-19T20:23:15.728Z,5.63
2018-07-19T20:25:44.050Z,5.37
2018-07-19T20:28:12.361Z,5.40
2018-07-19T20:30:40.681Z,5.50
2018-07-19T20:33:09.001Z,5.50
2018-07-19T20:35:37.328Z,5.80
2018-07-19T20:38:05.658Z,5.43
2018-07-19T20:40:33.992Z,5.40
2018-07-19T20:43:02.327Z,5.90
2018-07-19T20:45:30.645Z,5.70
2018-07-19T20:47:59.036Z,5.60
2018-07-19T20:50:27.356Z,5.53
2018-07-19T20:52:55.676Z,5.83
2018-07-19T20:55:23.989Z,5.90
2018-07-19T20:57:52.340Z,5.93
2018-07-19T21:00:20.647Z,6.13
2018-07-19T21:02:48.995Z,6.13
2018-07-19T21:05:17.300Z,5.50
2018-07-19T21:07:45.736Z,5.27
2018-07-19T21:10:14.219Z,5.70
2018-07-19T21:12:42.589Z,5.80
2018-07-19T21:15:11.001Z,6.00
2018-07-19T21:17:39.304Z,6.23
2018-07-19T21:20:07.644Z,5.63
2018-07-19T21:22:35.964Z,5.80
2018-07-19T21:25:04.492Z,5.50
2018-07-19T21:27:32.809Z,5.87
2018-07-19T21:30:01.137Z,5.73
2018-07-19T21:32:29.441Z,5.93
2018-07-19T21:34:57.779Z,5.87
2018-07-19T21:37:26.088Z,6.17
2018-07-19T21:39:54.421Z,5.90
2018-07-19T21:42:22.828Z,5.47
2018-07-19T21:44:51.177Z,5.30
2018-07-19T21:47:19.476Z,5.20
2018-07-19T21:49:47.829Z,5.43
2018-07-19T21:52:16.197Z,5.73
2018-07-19T21:54:44.520Z,5.47
2018-07-19T21:57:12.804Z,5.83
2018-07-19T21:59:41.118Z,5.90
2018-07-19T22:02:10.800Z,5.40
2018-07-19T22:04:39.125Z,5.57
2018-07-19T22:07:07.446Z,6.23
2018-07-19T22:09:35.876Z,6.47
2018-07-19T22:12:04.132Z,5.90
2018-07-19T22:14:32.465Z,5.47
2018-07-19T22:17:00.799Z,6.20
2018-07-19T22:19:29.110Z,5.97
2018-07-19T22:21:57.452Z,6.30
2018-07-19T22:24:25.804Z,5.83
2018-07-19T22:26:54.161Z,6.47
2018-07-19T22:29:22.504Z,6.40
2018-07-19T22:31:50.865Z,6.77
2018-07-19T22:34:19.177Z,6.33
2018-07-19T22:36:47.493Z,6.50
2018-07-19T22:39:15.829Z,6.70
2018-07-19T22:41:44.139Z,5.83
2018-07-19T22:44:12.457Z,6.87
2018-07-19T22:46:40.872Z,6.43
2018-07-19T22:49:09.184Z,6.50
2018-07-19T22:51:37.536Z,7.03
2018-07-19T22:54:05.842Z,6.53
2018-07-19T22:56:34.142Z,7.10
2018-07-19T22:59:02.481Z,6.37
2018-07-19T23:01:30.793Z,6.30
2018-07-19T23:03:59.185Z,6.53
2018-07-19T23:06:27.472Z,6.70
2018-07-19T23:08:55.770Z,6.60
2018-07-19T23:11:24.061Z,7.13
2018-07-19T23:13:52.381Z,7.07
2018-07-19T23:16:20.756Z,7.97
2018-07-19T23:18:49.077Z,7.30
2018-07-19T23:21:17.400Z,6.63
2018-07-19T23:23:45.709Z,6.87
2018-07-19T23:26:14.021Z,6.53
2018-07-19T23:28:42.337Z,6.60
2018-07-19T23:31:10.661Z,6.77
2018-07-19T23:33:38.982Z,7.40
2018-07-19T23:36:19.161Z,7.00
2018-07-19T23:38:54.336Z,7.30
2018-07-19T23:41:27.848Z,6.67
2018-07-19T23:43:59.901Z,7.53
2018-07-19T23:46:33.311Z,7.40
2018-07-19T23:49:07.580Z,7.33
2018-07-19T23:51:37.625Z,7.13
2018-07-19T23:54:05.936Z,7.77
2018-07-19T23:56:34.579Z,8.13
2018-07-19T23:59:03.143Z,7.60
